createdAt,value
2023-04-06T00:02:52.611Z,0.00
2023-04-06T00:07:52.453Z,0.00
2023-04-06T00:12:52.412Z,0.00
2023-04-06T00:17:52.355Z,0.00
2023-04-06T00:22:52.274Z,0.00
2023-04-06T00:27:52.203Z,0.00
2023-04-06T00:32:52.169Z,0.00
2023-04-06T00:37:52.085Z,0.00
2023-04-06T00:42:52.041Z,0.00
2023-04-06T00:47:52.031Z,0.00
2023-04-06T00:52:51.895Z,0.00
2023-04-06T00:57:51.826Z,0.00
2023-04-06T01:02:51.802Z,0.00
2023-04-06T01:07:51.705Z,0.00
2023-04-06T01:12:51.637Z,0.00
2023-04-06T01:17:51.573Z,0.00
2023-04-06T01:22:51.521Z,0.00
2023-04-06T01:27:51.448Z,0.00
2023-04-06T01:32:51.434Z,0.00
2023-04-06T01:37:51.307Z,0.00
2023-04-06T01:42:51.256Z,0.00
2023-04-06T01:47:51.260Z,0.00
2023-04-06T01:52:51.141Z,0.00
2023-04-06T01:57:51.080Z,0.00
2023-04-06T02:02:51.036Z,0.00
2023-04-06T02:07:50.943Z,0.00
2023-04-06T02:12:50.889Z,0.00
2023-04-06T02:17:50.809Z,0.00
2023-04-06T02:22:50.738Z,0.00
2023-04-06T02:27:50.672Z,0.00
2023-04-06T02:32:50.628Z,0.00
2023-04-06T02:37:50.545Z,0.00
2023-04-06T02:42:50.478Z,0.00
2023-04-06T02:47:50.449Z,0.00
2023-04-06T02:52:50.355Z,0.00
2023-04-06T02:57:50.285Z,0.00
2023-04-06T03:02:50.350Z,0.00
2023-04-06T03:07:50.161Z,0.00
2023-04-06T03:12:50.117Z,0.00
2023-04-06T03:17:50.036Z,0.00
2023-04-06T03:22:49.961Z,0.00
2023-04-06T03:27:49.951Z,0.00
2023-04-06T03:32:49.886Z,0.00
2023-04-06T03:37:49.815Z,0.00
2023-04-06T03:42:49.738Z,0.00
2023-04-06T03:47:49.762Z,0.00
2023-04-06T03:52:49.639Z,0.00
2023-04-06T03:57:49.517Z,0.00
2023-04-06T04:02:49.454Z,0.00
2023-04-06T04:07:49.364Z,0.00
2023-04-06T04:12:49.309Z,0.00
2023-04-06T04:17:49.295Z,5.62
2023-04-06T04:22:49.175Z,11.25
2023-04-06T04:27:49.109Z,22.50
2023-04-06T04:32:49.160Z,33.75
2023-04-06T04:37:48.992Z,50.62
2023-04-06T04:42:48.932Z,78.75
2023-04-06T04:47:48.902Z,258.75
2023-04-06T04:52:48.814Z,298.12
2023-04-06T04:57:48.736Z,275.62
2023-04-06T05:02:48.713Z,528.75
2023-04-06T05:07:48.607Z,523.12
2023-04-06T05:12:48.560Z,798.75
2023-04-06T05:17:48.514Z,483.75
2023-04-06T05:22:48.441Z,590.62
2023-04-06T05:27:48.336Z,776.25
2023-04-06T05:32:48.354Z,579.38
2023-04-06T05:37:48.214Z,1856.25
2023-04-06T05:42:48.155Z,1670.62
2023-04-06T05:47:48.152Z,1918.12
2023-04-06T05:52:48.007Z,1546.88
2023-04-06T05:57:47.931Z,2480.62
2023-04-06T06:02:47.910Z,2643.75
2023-04-06T06:07:47.811Z,3155.62
2023-04-06T06:12:47.738Z,3403.12
2023-04-06T06:17:47.712Z,3560.62
2023-04-06T06:22:47.888Z,3678.75
2023-04-06T06:27:47.526Z,3729.38
2023-04-06T06:32:47.565Z,3965.62
2023-04-06T06:37:47.406Z,3999.38
2023-04-06T06:42:47.372Z,3813.75
2023-04-06T06:47:47.330Z,4156.88
2023-04-06T06:52:47.208Z,3999.38
2023-04-06T06:57:47.186Z,4314.38
2023-04-06T07:02:47.094Z,4213.12
2023-04-06T07:07:47.010Z,4033.12
2023-04-06T07:12:46.971Z,4314.38
2023-04-06T07:17:46.963Z,4230.00
2023-04-06T07:22:46.805Z,4320.00
2023-04-06T07:27:46.738Z,4516.88
2023-04-06T07:32:46.726Z,4528.12
2023-04-06T07:37:46.608Z,4438.12
2023-04-06T07:42:46.564Z,4376.25
2023-04-06T07:47:46.500Z,4426.88
2023-04-06T07:52:46.413Z,4275.00
2023-04-06T07:57:46.369Z,4415.62
2023-04-06T08:02:46.404Z,4590.00
2023-04-06T08:07:46.218Z,4325.62
2023-04-06T08:12:46.143Z,4421.25
2023-04-06T08:17:46.168Z,4421.25
2023-04-06T08:22:46.013Z,4286.25
2023-04-06T08:27:45.938Z,4286.25
2023-04-06T08:32:45.959Z,4145.62
2023-04-06T08:37:45.808Z,4353.75
2023-04-06T08:42:45.741Z,1963.12
2023-04-06T08:47:45.722Z,1946.25
2023-04-06T08:52:45.627Z,1800.00
2023-04-06T08:57:45.551Z,849.38
2023-04-06T09:02:45.527Z,798.75
2023-04-06T09:07:45.416Z,787.50
2023-04-06T09:12:45.365Z,781.88
2023-04-06T09:17:45.303Z,781.88
2023-04-06T09:22:45.211Z,787.50
2023-04-06T09:27:45.465Z,787.50
2023-04-06T09:32:45.125Z,781.88
2023-04-06T09:37:45.008Z,781.88
2023-04-06T09:42:44.949Z,770.62
2023-04-06T09:47:45.017Z,765.00
2023-04-06T09:52:44.813Z,776.25
2023-04-06T09:57:44.831Z,798.75
2023-04-06T10:02:44.722Z,810.00
2023-04-06T10:07:57.190Z,663.75
2023-04-06T10:12:45.553Z,703.12
2023-04-06T10:17:44.497Z,748.12
2023-04-06T10:22:44.417Z,725.62
2023-04-06T10:27:44.347Z,742.50
2023-04-06T10:32:45.695Z,866.25
2023-04-06T10:37:44.209Z,1006.88
2023-04-06T10:42:44.165Z,990.00
2023-04-06T10:47:44.138Z,928.12
2023-04-06T10:52:44.045Z,900.00
2023-04-06T10:57:43.952Z,871.88
2023-04-06T11:02:43.905Z,708.75
2023-04-06T11:07:43.817Z,708.75
2023-04-06T11:12:43.758Z,810.00
2023-04-06T11:17:43.702Z,781.88
2023-04-06T11:22:43.599Z,748.12
2023-04-06T11:27:43.540Z,708.75
2023-04-06T11:32:43.518Z,714.38
2023-04-06T11:37:43.395Z,720.00
2023-04-06T11:42:43.342Z,607.50
2023-04-06T11:47:45.318Z,742.50
2023-04-06T11:52:43.254Z,646.88
2023-04-06T11:57:43.116Z,731.25
2023-04-06T12:02:43.133Z,793.12
2023-04-06T12:07:43.071Z,787.50
2023-04-06T12:12:42.919Z,748.12
2023-04-06T12:17:42.890Z,697.50
2023-04-06T12:22:42.794Z,691.88
2023-04-06T12:27:42.724Z,675.00
2023-04-06T12:32:42.726Z,663.75
2023-04-06T12:37:42.584Z,630.00
2023-04-06T12:42:42.547Z,635.62
2023-04-06T12:47:42.522Z,630.00
2023-04-06T12:52:42.403Z,613.12
2023-04-06T12:57:42.376Z,585.00
2023-04-06T13:02:42.654Z,596.25
2023-04-06T13:07:42.175Z,601.88
2023-04-06T13:12:42.114Z,590.62
2023-04-06T13:17:42.114Z,466.88
2023-04-06T13:22:42.006Z,506.25
2023-04-06T13:27:41.928Z,568.12
2023-04-06T13:32:41.873Z,455.62
2023-04-06T13:37:41.800Z,450.00
2023-04-06T13:42:41.760Z,545.62
2023-04-06T13:47:41.750Z,534.38
2023-04-06T13:52:41.606Z,523.12
2023-04-06T13:57:41.515Z,489.38
2023-04-06T14:02:41.602Z,472.50
2023-04-06T14:07:41.387Z,421.88
2023-04-06T14:12:41.321Z,399.38
2023-04-06T14:17:41.267Z,382.50
2023-04-06T14:22:41.386Z,371.25
2023-04-06T14:27:41.222Z,360.00
2023-04-06T14:32:41.095Z,348.75
2023-04-06T14:37:40.979Z,343.12
2023-04-06T14:42:40.914Z,343.12
2023-04-06T14:47:40.901Z,337.50
2023-04-06T14:52:40.779Z,326.25
2023-04-06T14:57:40.725Z,320.62
2023-04-06T15:02:40.886Z,309.38
2023-04-06T15:07:40.593Z,309.38
2023-04-06T15:12:40.517Z,303.75
2023-04-06T15:17:40.453Z,298.12
2023-04-06T15:22:40.387Z,292.50
2023-04-06T15:27:40.306Z,286.88
2023-04-06T15:32:40.248Z,281.25
2023-04-06T15:37:40.174Z,275.62
2023-04-06T15:42:40.191Z,270.00
2023-04-06T15:47:40.073Z,264.38
2023-04-06T15:52:39.981Z,258.75
2023-04-06T15:57:40.002Z,253.12
2023-04-06T16:02:39.976Z,247.50
2023-04-06T16:07:39.776Z,236.25
2023-04-06T16:12:39.804Z,225.00
2023-04-06T16:17:39.714Z,219.38
2023-04-06T16:22:39.562Z,213.75
2023-04-06T16:27:39.560Z,208.12
2023-04-06T16:32:39.468Z,196.88
2023-04-06T16:37:39.367Z,185.62
2023-04-06T16:42:39.321Z,174.38
2023-04-06T16:47:39.340Z,163.12
2023-04-06T16:52:39.196Z,151.88
2023-04-06T16:57:39.122Z,135.00
2023-04-06T17:02:39.122Z,123.75
2023-04-06T17:07:38.980Z,106.88
2023-04-06T17:12:38.898Z,95.62
2023-04-06T17:17:38.908Z,78.75
2023-04-06T17:22:38.788Z,67.50
2023-04-06T17:27:38.695Z,50.62
2023-04-06T17:32:38.671Z,39.38
2023-04-06T17:37:38.579Z,28.12
2023-04-06T17:42:38.522Z,16.88
2023-04-06T17:47:38.474Z,5.62
2023-04-06T17:52:38.374Z,0.00
2023-04-06T17:57:41.045Z,0.00
2023-04-06T18:02:38.605Z,0.00
2023-04-06T18:07:38.183Z,0.00
2023-04-06T18:12:38.120Z,0.00
2023-04-06T18:17:38.113Z,0.00
2023-04-06T18:22:37.993Z,0.00
2023-04-06T18:27:37.904Z,0.00
2023-04-06T18:32:37.998Z,0.00
2023-04-06T18:37:37.790Z,0.00
2023-04-06T18:42:37.726Z,0.00
2023-04-06T18:47:37.700Z,0.00
2023-04-06T18:52:37.587Z,0.00
2023-04-06T18:57:37.516Z,0.00
2023-04-06T19:02:37.705Z,0.00
2023-04-06T19:07:37.393Z,0.00
2023-04-06T19:12:38.964Z,0.00
2023-04-06T19:17:37.299Z,0.00
2023-04-06T19:22:37.273Z,0.00
2023-04-06T19:27:37.134Z,0.00
2023-04-06T19:32:37.057Z,0.00
2023-04-06T19:37:36.987Z,0.00
2023-04-06T19:42:36.917Z,0.00
2023-04-06T19:47:36.859Z,0.00
2023-04-06T19:52:36.770Z,0.00
2023-04-06T19:57:36.713Z,0.00
2023-04-06T20:02:36.744Z,0.00
2023-04-06T20:07:36.580Z,0.00
2023-04-06T20:12:36.512Z,0.00
2023-04-06T20:17:36.467Z,0.00
2023-04-06T20:22:36.381Z,0.00
2023-04-06T20:27:36.319Z,0.00
2023-04-06T20:32:36.322Z,0.00
2023-04-06T20:37:36.204Z,0.00
2023-04-06T20:42:36.144Z,0.00
2023-04-06T20:47:36.141Z,0.00
2023-04-06T20:52:35.999Z,0.00
2023-04-06T20:57:35.954Z,0.00
2023-04-06T21:02:36.092Z,0.00
2023-04-06T21:07:35.801Z,0.00
2023-04-06T21:12:35.742Z,0.00
2023-04-06T21:17:35.674Z,0.00
2023-04-06T21:22:35.600Z,0.00
2023-04-06T21:27:35.580Z,0.00
2023-04-06T21:32:35.533Z,0.00
2023-04-06T21:37:35.409Z,0.00
2023-04-06T21:42:35.347Z,0.00
2023-04-06T21:47:35.372Z,0.00
2023-04-06T21:52:35.202Z,0.00
2023-04-06T21:57:35.467Z,0.00
2023-04-06T22:02:35.171Z,0.00
2023-04-06T22:07:35.008Z,0.00
2023-04-06T22:12:34.941Z,0.00
2023-04-06T22:17:34.925Z,0.00
2023-04-06T22:22:34.825Z,0.00
2023-04-06T22:27:35.747Z,0.00
2023-04-06T22:32:34.716Z,0.00
2023-04-06T22:37:34.619Z,0.00
2023-04-06T22:42:34.559Z,0.00
2023-04-06T22:47:34.554Z,0.00
2023-04-06T22:52:34.483Z,0.00
2023-04-06T22:57:34.359Z,0.00
2023-04-06T23:02:34.399Z,0.00
2023-04-06T23:07:34.251Z,0.00
2023-04-06T23:12:34.183Z,0.00
2023-04-06T23:17:34.136Z,0.00
2023-04-06T23:22:34.037Z,0.00
2023-04-06T23:27:33.988Z,0.00
2023-04-06T23:32:33.998Z,0.00
2023-04-06T23:37:33.854Z,0.00
2023-04-06T23:42:33.770Z,0.00
2023-04-06T23:47:33.789Z,0.00
2023-04-06T23:52:33.643Z,0.00
2023-04-06T23:57:33.608Z,0.00
